createdAt,value
2018-06-29T00:00:54.676Z,18.60
2018-06-29T00:04:58.057Z,18.50
2018-06-29T00:09:01.410Z,18.50
2018-06-29T00:13:04.759Z,18.40
2018-06-29T00:17:08.120Z,18.30
2018-06-29T00:21:11.492Z,18.30
2018-06-29T00:25:15.041Z,18.20
2018-06-29T00:29:18.423Z,18.10
2018-06-29T00:33:21.788Z,18.10
2018-06-29T00:37:25.155Z,18.00
2018-06-29T00:41:28.611Z,17.90
2018-06-29T00:45:31.938Z,17.90
2018-06-29T00:49:35.309Z,17.80
2018-06-29T00:53:38.674Z,17.80
2018-06-29T00:57:42.057Z,17.70
2018-06-29T01:01:45.516Z,17.60
2018-06-29T01:05:48.890Z,17.50
2018-06-29T01:09:54.090Z,17.40
2018-06-29T01:13:57.451Z,17.30
2018-06-29T01:18:00.806Z,17.20
2018-06-29T01:22:04.385Z,17.20
2018-06-29T01:26:07.834Z,17.00
2018-06-29T01:30:11.247Z,17.00
2018-06-29T01:34:14.624Z,16.90
2018-06-29T01:38:17.972Z,16.80
2018-06-29T01:42:21.327Z,16.80
2018-06-29T01:46:24.688Z,16.70
2018-06-29T01:50:28.043Z,16.70
2018-06-29T01:54:31.450Z,16.60
2018-06-29T01:58:34.855Z,16.60
2018-06-29T02:02:38.216Z,16.50
2018-06-29T02:06:41.554Z,16.40
2018-06-29T02:10:44.896Z,16.30
2018-06-29T02:14:48.260Z,16.30
2018-06-29T02:18:51.588Z,16.20
2018-06-29T02:22:54.949Z,16.10
2018-06-29T02:26:58.260Z,16.10
2018-06-29T02:31:01.628Z,16.10
2018-06-29T02:35:05.003Z,16.00
2018-06-29T02:39:11.007Z,16.00
2018-06-29T02:43:14.358Z,15.90
2018-06-29T02:47:17.692Z,15.90
2018-06-29T02:51:21.020Z,15.80
2018-06-29T02:55:24.372Z,15.80
2018-06-29T02:59:27.729Z,15.80
2018-06-29T03:03:31.083Z,15.70
2018-06-29T03:07:34.421Z,15.70
2018-06-29T03:11:37.943Z,15.60
2018-06-29T03:15:41.295Z,15.60
2018-06-29T03:19:44.622Z,15.50
2018-06-29T03:23:47.987Z,15.50
2018-06-29T03:27:51.424Z,15.50
2018-06-29T03:31:54.759Z,15.40
2018-06-29T03:35:58.148Z,15.40
2018-06-29T03:40:01.488Z,15.40
2018-06-29T03:44:04.892Z,15.40
2018-06-29T03:48:08.300Z,15.40
2018-06-29T03:52:11.648Z,15.40
2018-06-29T03:56:15.017Z,15.40
2018-06-29T04:00:18.423Z,15.40
2018-06-29T04:04:21.773Z,15.30
2018-06-29T04:08:25.092Z,15.30
2018-06-29T04:12:28.460Z,15.30
2018-06-29T04:16:31.911Z,15.30
2018-06-29T04:20:35.252Z,15.30
2018-06-29T04:24:38.606Z,15.30
2018-06-29T04:28:42.603Z,15.30
2018-06-29T04:32:45.986Z,15.40
2018-06-29T04:36:49.319Z,15.40
2018-06-29T04:40:52.667Z,15.40
2018-06-29T04:44:56.001Z,15.50
2018-06-29T04:48:59.300Z,15.50
2018-06-29T04:53:02.636Z,15.60
2018-06-29T04:57:06.011Z,15.60
2018-06-29T05:01:09.457Z,15.60
2018-06-29T05:05:12.839Z,15.70
2018-06-29T05:09:16.651Z,15.70
2018-06-29T05:13:20.055Z,15.70
2018-06-29T05:17:23.392Z,15.80
2018-06-29T05:21:26.928Z,15.80
2018-06-29T05:29:33.300Z,15.90
2018-06-29T05:33:36.639Z,15.90
2018-06-29T05:37:40.000Z,16.00
2018-06-29T05:41:43.400Z,16.10
2018-06-29T05:45:46.700Z,16.10
2018-06-29T05:49:50.043Z,16.20
2018-06-29T05:53:53.385Z,16.20
2018-06-29T05:57:56.762Z,16.30
2018-06-29T06:02:00.197Z,16.40
2018-06-29T06:06:04.363Z,16.40
2018-06-29T06:10:07.840Z,16.50
2018-06-29T06:14:11.189Z,16.60
2018-06-29T06:18:14.544Z,16.70
2018-06-29T06:22:17.955Z,16.70
2018-06-29T06:26:21.315Z,16.80
2018-06-29T06:30:24.699Z,16.90
2018-06-29T06:34:28.024Z,17.00
2018-06-29T06:38:31.356Z,17.10
2018-06-29T06:42:34.768Z,17.20
2018-06-29T06:46:38.135Z,17.30
2018-06-29T06:50:41.464Z,17.30
2018-06-29T06:54:45.620Z,17.40
2018-06-29T06:58:48.992Z,17.50
2018-06-29T07:02:52.335Z,17.70
2018-06-29T07:06:55.699Z,17.80
2018-06-29T07:10:59.161Z,17.90
2018-06-29T07:15:02.513Z,18.00
2018-06-29T07:19:06.212Z,18.10
2018-06-29T07:23:09.571Z,18.20
2018-06-29T07:27:12.928Z,18.30
2018-06-29T07:31:16.280Z,18.50
2018-06-29T07:35:19.648Z,18.60
2018-06-29T07:39:22.995Z,18.70
2018-06-29T07:43:26.352Z,18.80
2018-06-29T07:47:29.699Z,19.00
2018-06-29T07:51:33.039Z,19.20
2018-06-29T07:55:36.424Z,19.30
2018-06-29T07:59:39.896Z,19.40
2018-06-29T08:03:43.257Z,19.50
2018-06-29T08:07:46.620Z,19.70
2018-06-29T08:11:49.968Z,19.90
2018-06-29T08:15:53.927Z,20.00
2018-06-29T08:19:57.267Z,20.20
2018-06-29T08:24:00.627Z,20.30
2018-06-29T08:28:03.968Z,20.50
2018-06-29T08:32:07.316Z,20.60
2018-06-29T08:36:10.652Z,20.80
2018-06-29T08:40:14.069Z,21.00
2018-06-29T08:44:17.438Z,21.20
2018-06-29T08:48:20.808Z,21.30
2018-06-29T08:52:24.159Z,21.50
2018-06-29T08:56:27.487Z,21.70
2018-06-29T09:00:30.840Z,21.90
2018-06-29T09:04:34.211Z,22.00
2018-06-29T09:08:37.544Z,22.20
2018-06-29T09:12:40.875Z,22.40
2018-06-29T09:16:44.223Z,22.60
2018-06-29T09:20:47.616Z,22.80
2018-06-29T09:24:50.946Z,23.10
2018-06-29T09:28:54.271Z,23.30
2018-06-29T09:32:57.628Z,23.50
2018-06-29T09:37:00.995Z,23.80
2018-06-29T09:41:04.478Z,24.00
2018-06-29T09:45:08.020Z,24.30
2018-06-29T09:49:11.400Z,24.60
2018-06-29T09:53:14.748Z,24.80
2018-06-29T09:57:22.564Z,25.10
2018-06-29T10:01:26.116Z,25.30
2018-06-29T10:05:29.909Z,25.60
2018-06-29T10:09:33.282Z,25.80
2018-06-29T10:13:36.680Z,26.00
2018-06-29T10:17:40.072Z,26.30
2018-06-29T10:21:44.566Z,26.50
2018-06-29T10:25:47.931Z,26.70
2018-06-29T10:29:51.299Z,26.90
2018-06-29T10:33:54.756Z,27.10
2018-06-29T10:37:58.151Z,27.30
2018-06-29T10:42:01.497Z,27.40
2018-06-29T10:46:04.955Z,27.60
2018-06-29T10:50:08.337Z,27.80
2018-06-29T10:54:11.720Z,27.90
2018-06-29T10:58:15.119Z,28.00
2018-06-29T11:02:18.476Z,28.10
2018-06-29T11:06:21.820Z,28.20
2018-06-29T11:10:25.255Z,28.30
2018-06-29T11:14:28.619Z,28.40
2018-06-29T11:18:31.984Z,28.50
2018-06-29T11:22:35.386Z,28.50
2018-06-29T11:26:38.807Z,28.70
2018-06-29T11:30:42.207Z,28.80
2018-06-29T11:34:45.738Z,28.90
2018-06-29T11:38:49.172Z,29.00
2018-06-29T11:42:52.541Z,29.20
2018-06-29T11:46:55.908Z,29.30
2018-06-29T11:51:06.972Z,29.40
2018-06-29T11:55:10.399Z,29.40
2018-06-29T11:59:17.007Z,29.50
2018-06-29T12:03:20.887Z,29.60
2018-06-29T12:07:24.470Z,29.70
2018-06-29T12:11:38.096Z,29.90
2018-06-29T12:15:41.738Z,30.00
2018-06-29T12:19:45.228Z,30.10
2018-06-29T12:23:48.931Z,30.20
2018-06-29T12:27:52.544Z,30.30
2018-06-29T12:32:19.376Z,30.50
2018-06-29T12:36:22.972Z,30.60
2018-06-29T12:40:26.637Z,30.70
2018-06-29T12:44:30.174Z,30.80
2018-06-29T12:48:33.757Z,30.90
2018-06-29T12:52:37.408Z,30.90
2018-06-29T12:56:41.033Z,31.00
2018-06-29T13:00:45.061Z,31.10
2018-06-29T13:04:48.642Z,31.10
2018-06-29T13:08:52.331Z,31.10
2018-06-29T13:12:56.521Z,31.10
2018-06-29T13:17:01.089Z,31.20
2018-06-29T13:21:04.763Z,31.30
2018-06-29T13:25:08.389Z,31.40
2018-06-29T13:29:11.841Z,31.40
2018-06-29T13:33:15.460Z,31.50
2018-06-29T13:37:18.980Z,31.50
2018-06-29T13:41:36.859Z,31.60
2018-06-29T13:45:40.449Z,31.60
2018-06-29T13:49:44.033Z,31.60
2018-06-29T13:53:47.595Z,31.60
2018-06-29T13:57:51.099Z,31.60
2018-06-29T14:01:54.652Z,31.70
2018-06-29T14:05:58.055Z,31.70
2018-06-29T14:10:01.453Z,31.70
2018-06-29T14:14:04.879Z,31.70
2018-06-29T14:18:08.325Z,31.70
2018-06-29T14:22:11.720Z,31.70
2018-06-29T14:26:15.063Z,31.70
2018-06-29T14:30:18.517Z,31.80
2018-06-29T14:34:22.645Z,31.80
2018-06-29T14:38:28.468Z,31.80
2018-06-29T14:42:33.048Z,31.70
2018-06-29T14:46:38.218Z,31.60
2018-06-29T14:51:05.702Z,31.60
2018-06-29T15:08:33.689Z,31.50
2018-06-29T15:12:37.352Z,31.50
2018-06-29T15:16:41.151Z,31.50
2018-06-29T15:20:44.728Z,31.50
2018-06-29T15:24:49.053Z,31.40
2018-06-29T15:28:52.696Z,31.40
2018-06-29T15:32:56.159Z,31.40
2018-06-29T15:36:59.516Z,31.30
2018-06-29T15:41:02.881Z,31.30
2018-06-29T15:45:06.621Z,31.30
2018-06-29T15:49:10.383Z,31.40
2018-06-29T15:53:14.256Z,31.50
2018-06-29T15:57:18.512Z,31.60
2018-06-29T16:06:14.172Z,31.90
2018-06-29T16:10:17.829Z,32.00
2018-06-29T16:14:21.971Z,32.10
2018-06-29T16:18:25.972Z,32.30
2018-06-29T16:22:29.806Z,32.30
2018-06-29T16:26:33.990Z,32.40
2018-06-29T16:30:37.761Z,32.40
2018-06-29T16:34:41.457Z,32.40
2018-06-29T16:38:45.444Z,32.40
2018-06-29T16:42:48.799Z,32.40
2018-06-29T16:46:52.137Z,32.30
2018-06-29T16:50:55.488Z,32.10
2018-06-29T16:54:58.919Z,32.00
2018-06-29T16:59:02.263Z,31.80
2018-06-29T17:03:05.959Z,31.60
2018-06-29T17:07:09.295Z,31.40
2018-06-29T17:11:12.635Z,31.20
2018-06-29T17:15:16.211Z,31.10
2018-06-29T17:19:19.572Z,30.80
2018-06-29T17:23:22.931Z,30.70
2018-06-29T17:27:26.284Z,30.50
2018-06-29T17:31:29.687Z,30.40
2018-06-29T17:35:33.052Z,30.20
2018-06-29T17:39:36.395Z,30.00
2018-06-29T17:43:39.999Z,29.80
2018-06-29T17:47:43.580Z,29.60
2018-06-29T17:51:47.076Z,29.50
2018-06-29T17:55:50.408Z,29.20
2018-06-29T17:59:53.842Z,29.10
2018-06-29T18:03:57.108Z,28.90
2018-06-29T18:08:01.287Z,28.80
2018-06-29T18:12:04.718Z,28.60
2018-06-29T18:16:08.237Z,28.40
2018-06-29T18:20:11.599Z,28.30
2018-06-29T18:24:14.954Z,28.20
2018-06-29T18:28:18.272Z,28.00
2018-06-29T18:32:21.667Z,27.90
2018-06-29T18:36:25.091Z,27.80
2018-06-29T18:40:28.455Z,27.60
2018-06-29T18:44:31.803Z,27.40
2018-06-29T18:48:35.135Z,27.30
2018-06-29T18:52:38.468Z,27.20
2018-06-29T18:56:41.812Z,27.00
2018-06-29T19:00:45.236Z,26.90
2018-06-29T19:04:48.573Z,26.70
2018-06-29T19:08:51.916Z,26.60
2018-06-29T19:12:55.236Z,26.50
2018-06-29T19:16:58.583Z,26.40
2018-06-29T19:21:01.957Z,26.20
2018-06-29T19:25:05.414Z,26.10
2018-06-29T19:29:08.970Z,26.00
2018-06-29T19:33:12.303Z,25.90
2018-06-29T19:37:15.661Z,25.80
2018-06-29T19:41:19.011Z,25.60
2018-06-29T19:45:22.408Z,25.60
2018-06-29T19:49:25.736Z,25.40
2018-06-29T19:53:29.090Z,25.30
2018-06-29T19:57:32.532Z,25.20
2018-06-29T20:01:35.872Z,25.00
2018-06-29T20:05:39.247Z,24.90
2018-06-29T20:09:42.589Z,24.90
2018-06-29T20:13:52.390Z,24.70
2018-06-29T20:17:55.709Z,24.60
2018-06-29T20:21:59.078Z,24.50
2018-06-29T20:26:02.444Z,24.40
2018-06-29T20:30:06.708Z,24.30
2018-06-29T20:34:10.036Z,24.20
2018-06-29T20:38:13.386Z,24.10
2018-06-29T20:42:16.764Z,24.00
2018-06-29T20:46:20.806Z,23.90
2018-06-29T20:50:24.192Z,23.80
2018-06-29T20:54:27.551Z,23.70
2018-06-29T20:58:32.161Z,23.60
2018-06-29T21:02:35.692Z,23.50
2018-06-29T21:06:39.082Z,23.40
2018-06-29T21:10:42.473Z,23.30
2018-06-29T21:14:45.839Z,23.20
2018-06-29T21:18:49.203Z,23.10
2018-06-29T21:22:52.600Z,23.00
2018-06-29T21:26:56.015Z,22.90
2018-06-29T21:30:59.419Z,22.80
2018-06-29T21:35:03.018Z,22.70
2018-06-29T21:39:07.688Z,22.60
2018-06-29T21:43:11.048Z,22.50
2018-06-29T21:47:14.432Z,22.40
2018-06-29T21:51:17.777Z,22.40
2018-06-29T21:55:21.119Z,22.30
2018-06-29T21:59:24.484Z,22.20
2018-06-29T22:03:28.034Z,22.10
2018-06-29T22:07:31.399Z,22.00
2018-06-29T22:11:41.173Z,21.90
2018-06-29T22:15:44.515Z,21.90
2018-06-29T22:19:47.849Z,21.80
2018-06-29T22:23:51.252Z,21.70
2018-06-29T22:27:55.346Z,21.60
2018-06-29T22:31:58.735Z,21.50
2018-06-29T22:36:02.794Z,21.40
2018-06-29T22:40:06.160Z,21.40
2018-06-29T22:44:09.496Z,21.30
2018-06-29T22:48:12.823Z,21.20
2018-06-29T22:52:16.171Z,21.10
2018-06-29T22:56:19.521Z,21.00
2018-06-29T23:00:22.860Z,21.00
2018-06-29T23:04:26.203Z,20.90
2018-06-29T23:08:29.547Z,20.80
2018-06-29T23:12:32.869Z,20.80
2018-06-29T23:20:39.460Z,20.60
2018-06-29T23:24:42.807Z,20.60
2018-06-29T23:28:46.158Z,20.50
2018-06-29T23:32:49.490Z,20.40
2018-06-29T23:36:52.819Z,20.40
2018-06-29T23:40:56.139Z,20.30
2018-06-29T23:44:59.499Z,20.20
2018-06-29T23:49:02.822Z,20.10
2018-06-29T23:53:06.184Z,20.10
2018-06-29T23:57:09.519Z,20.00
